Unser Flugplatzteam

Segelflugzeugschlepp am Flugplatz Konstanz

Unsere freundlichen Mitarbeiter stehen Ihnen gerne mit Rat und Tat zur Seite:

Robert Leitner

Flugleiter, Landesbeauftragter für Luftaufsicht am Verkehrlandeplatz Konstanz

Minky Schweizer

Flugleiterin

Dieter Bauer

Flugleiter

Live am Platz

Die Bilder unserer Webcams werden alle 5 Minuten aktualisiert.

Sonnenaufgang:

06:23 UTC / 07:23 Lokal

Sonnenuntergang:

16:51 UTC / 17:51 Lokal

METAR (17.02.2019 03:20 UTC):

EDNY 170320Z AUTO 00000KT 6000 // NCD M03/M04 Q1028
MVFR

TAF (16.02.2019 23:00 UTC):

TAF EDNY 162300Z 1700/1724 VRB03KT CAVOK PROB30 TEMPO 1700/1708 3000 BCFG

Alle Angaben unverbindlich und ohne Gewähr. Zeiten genähert.

Für den Verkehrslandeplatz Konstanz werden keine offiziellen Wetterinformationen ausgegeben. Daher werden zur Orientierung Daten des nahegelegenen Flughafens Friedrichshafen dargestellt.

Flugwetterdaten zur Verfügung gestellt von wippich.aero.